Tiempo atmosférico en la estación meteorológica de Castejon De Valdejasa, Zaragoza (442 m.)



Fecha
DESCASC
Temp. máxima en grados centígrados (hora)
DESCASC
Temp. mínima en grados centígrados (hora)
DESCASC
Temp. media en grados centígrados
DESCASC
Racha de viento máxima en m/sg (hora)
DESCASC
Velocidad máxima media en intervalos de 10 minutos(hora)
DESCASC
Precipitaciones diarias en mm
DESCASC
Precipitaciones de 00:00 a 06:00 en mm
DESCASC
Precipitaciones de 06:00 a 12:00 en mm
DESCASC
Precipitaciones de 12:00 a 18:00 en mm
DESCASC
Precipitaciones de 18:00 a 24:00 en mm
DESCASC
23-06-2019 34.2 (15:50) 18.5 (04:40) 26.4 15 (19:30) 11.11 (20:30) 0 0 0 0 0
22-06-2019 30.7 (17:50) 9.5 (06:50) 20.1 9.17 (21:10) 6.94 (21:20) 0 0 0 0 0
21-06-2019 23.2 (17:20) 13.2 (07:10) 18.2 12.5 (16:40) 7.78 (18:10) 0.4 0.4 0 0 0
20-06-2019 26.3 (16:00) 14 (00:00) 20.1 12.5 (19:50) 8.61 (19:50) 0 0 0 0 0
19-06-2019 -- (--) -- (--) -- -- (--) -- (--) -- -- -- -- 0
18-06-2019 -- (--) -- (--) -- -- (--) -- (--) -- 0 0 0 --
17-06-2019 32.6 (17:40) 17.1 (00:00) 24.8 10.83 (22:30) 7.22 (22:30) 0 0 0 0 0
16-06-2019 29.3 (17:40) 9.4 (00:00) 19.3 8.33 (16:10) 5.28 (19:50) 0 0 0 0 0
15-06-2019 23.6 (18:50) 10.7 (00:00) 17.2 12.5 (15:40) 7.22 (01:30) 0 0 0 0 0
14-06-2019 27.7 (17:20) 12.1 (00:00) 19.9 15.83 (00:10) 12.78 (00:10) 0 0 0 0 0
13-06-2019 25.9 (17:10) 11.1 (00:00) 18.5 18.33 (17:30) 12.78 (23:40) 0 0 0 0 0
12-06-2019 22.3 (16:50) 5 (00:00) 13.6 10.28 (21:20) 7.78 (21:20) 0 0 0 0 0
11-06-2019 16.7 (17:10) 8 (00:00) 12.4 16.39 (14:20) 8.89 (17:20) 0.8 0.2 0.6 0 0
10-06-2019 19 (16:30) 10 (00:00) 14.5 15.28 (14:20) 9.44 (12:40) 0 0 0 0 0
09-06-2019 28.6 (18:00) 13.9 (00:00) 21.3 14.72 (00:10) 10.83 (00:10) 0 0 0 0 0
08-06-2019 25.1 (16:30) 6.4 (00:00) 15.8 17.22 (23:50) 12.5 (23:50) 0 0 0 0 0
07-06-2019 21.3 (16:50) 10.1 (00:00) 15.7 14.44 (02:10) 10.28 (02:30) 1.6 0.2 1.4 0 0
06-06-2019 25 (16:50) 7.6 (00:00) 16.3 17.22 (19:40) 12.78 (19:40) 0 0 0 0 0
05-06-2019 16.5 (18:20) 9.5 (00:00) 13 15 (16:00) 8.89 (13:40) 5.2 0 5.2 0 0
04-06-2019 31.1 (17:00) 14.1 (00:00) 22.6 14.44 (18:30) 10.28 (01:30) 0.6 0 0 0 0.6
03-06-2019 31.9 (16:50) 16.9 (00:00) 24.4 15.83 (03:00) 11.11 (20:10) 0 0 0 0 0
02-06-2019 32.7 (16:50) 16.1 (00:00) 24.4 9.17 (03:50) 6.94 (09:40) 0 0 0 0 0
01-06-2019 30.8 (18:00) 15.1 (00:00) 22.9 -- (--) -- (--) 0 0 0 0 0
31-05-2019 28.5 (19:00) 12.5 (00:00) 20.5 6.94 (10:20) 5.28 (10:40) 0 0 0 0 0
30-05-2019 27.2 (19:10) 7.1 (00:00) 17.2 10 (16:10) 6.11 (20:00) 0 0 0 0 0
29-05-2019 19.1 (18:20) 8.7 (00:00) 13.9 16.39 (14:30) 10.28 (14:30) 0 0 0 0 0
28-05-2019 17.1 (15:50) 9 (00:00) 13.1 19.72 (12:00) 10.83 (00:30) 0 0 0 0 0

Gráficas

Temp. máximas Temp. mínimas Temp. medias Precipitaciones Rachas de viento máximas Velocidades máximas media en intervalos de 10 minutos

Datos horarios

Fecha y hora oficial Temperatura (ºC) Velocidad del viento (km/h) Dirección del viento Racha (km/h) Dirección de racha Precipitación (mm) Presión (hPa) Tendencia (hPa) Humedad (%)
2019-06-26 23:00:00 28.5 52 Este 73 Este 0 -- -- 33
2019-06-26 22:00:00 29.6 49 Este 67 Este 0 -- -- 30
2019-06-26 21:00:00 31.3 50 Este 64 Este 0 -- -- 27
2019-06-26 20:00:00 33.1 43 Este 78 Este 0 -- -- 27
2019-06-26 19:00:00 34.1 50 Este 74 Este 0 -- -- 26
2019-06-26 18:00:00 34.7 51 Este 76 Este 0 -- -- 26
2019-06-26 17:00:00 35.6 44 Este 70 Este 0 -- -- 25
2019-06-26 16:00:00 35.6 43 Este 68 Este 0 -- -- 25
2019-06-26 15:00:00 34.5 39 Este 64 Este 0 -- -- 27
2019-06-26 14:00:00 33 37 Este 60 Este 0 -- -- 28
2019-06-26 13:00:00 32.4 34 Este 60 Este 0 -- -- 28
2019-06-26 12:00:00 30.9 37 Este 77 Este 0 -- -- 30
2019-06-26 11:00:00 29.4 50 Este 78 Este 0 -- -- 30
2019-06-26 10:00:00 27.2 49 Este 68 Este 0 -- -- 34
2019-06-26 09:00:00 25.5 30 Este 45 Este 0 -- -- 39
2019-06-26 08:00:00 23.3 32 Este 46 Este 0 -- -- 48
2019-06-26 07:00:00 21.5 31 Este 48 Este 0 -- -- 59
2019-06-26 06:00:00 21.2 37 Este 49 Este 0 -- -- 67
2019-06-26 05:00:00 21.1 41 Este 56 Este 0 -- -- 71
2019-06-26 04:00:00 21.6 38 Este 60 Este 0 -- -- 69
2019-06-26 03:00:00 21.6 43 Este 63 Este 0 -- -- 70
2019-06-26 02:00:00 22.3 48 Este 69 Este 0 -- -- 67
2019-06-26 01:00:00 23.4 43 Este 66 Este 0 -- -- 63
2019-06-26 00:00:00 26.1 52 Este 68 Este 0 -- -- 52
2019-06-25 23:00:00 28 31 Este 54 Sudeste 0 -- -- 46
2019-06-25 22:00:00 29.7 33 Este 53 Sudeste 0 -- -- 44
2019-06-25 21:00:00 31.3 23 Este 42 Este 0 -- -- 40
2019-06-25 20:00:00 32.4 30 Este 41 Este 0 -- -- 38
2019-06-25 19:00:00 33.4 23 Este 42 Este 0 -- -- 34
2019-06-25 18:00:00 33.4 28 Este 42 Este 0 -- -- 32
2019-06-25 17:00:00 33.3 24 Este 42 Este 0 -- -- 33
2019-06-25 16:00:00 33.5 23 Este 34 Este 0 -- -- 36
2019-06-25 15:00:00 32.2 20 Este 33 Este 0 -- -- 38
2019-06-25 14:00:00 31.1 17 Este 29 Este 0 -- -- 37
2019-06-25 13:00:00 29.8 12 Este 30 Este 0 -- -- 40
2019-06-25 12:00:00 28.4 18 Este 28 Este 0 -- -- 42
2019-06-25 11:00:00 27 14 Este 27 Este 0 -- -- 47
2019-06-25 10:00:00 -- 9 Oeste 14 Oeste 0 -- -- --
2019-06-25 09:00:00 20.4 4 Sudoeste 9 Noroeste 0 -- -- 60
2019-06-25 08:00:00 18.1 4 Este 9 Nordeste 0 -- -- 68
2019-06-25 07:00:00 16.6 6 Este 8 Este 0 -- -- 70
2019-06-25 06:00:00 18.4 0 Calma 5 Este 0 -- -- 61
2019-06-25 05:00:00 19.5 0 Calma 11 Este 0 -- -- 58
2019-06-25 04:00:00 20.3 6 Este 44 Este 0 -- -- 55
2019-06-25 03:00:00 21.1 34 Este 43 Este 0 -- -- 51
2019-06-25 02:00:00 21.5 28 Este 43 Este 0 -- -- 48
2019-06-25 01:00:00 22.7 29 Este 41 Este 0 -- -- 44
2019-06-25 00:00:00 23.7 28 Este 41 Este 0 -- -- 39
2019-06-24 23:00:00 24.8 19 Este 32 Este 0 -- -- 34
2019-06-24 22:00:00 26.2 28 Sudeste 42 Sudeste 0 -- -- 32
2019-06-24 21:00:00 28 20 Sudeste 39 Sudeste 0 -- -- 27
2019-06-24 20:00:00 29.3 22 Sudeste 43 Este 0 -- -- 26
2019-06-24 19:00:00 30.3 22 Este 48 Este 0 -- -- 25
2019-06-24 18:00:00 31.4 27 Este 46 Sudeste 0 -- -- 23
2019-06-24 17:00:00 32.4 33 Este 58 Este 0 -- -- 21
2019-06-24 16:00:00 31.5 31 Este 52 Este 0 -- -- 22
2019-06-24 15:00:00 30.3 28 Este 50 Este 0 -- -- 24
2019-06-24 14:00:00 31.1 30 Este 46 Este 0 -- -- 23
2019-06-24 13:00:00 28.7 29 Sudeste 48 Este 0 -- -- 26
2019-06-24 12:00:00 27.5 31 Sudeste 56 Este 0 -- -- 31
2019-06-24 11:00:00 26.3 35 Este 55 Sudeste 0 -- -- 31
2019-06-24 10:00:00 24.8 30 Este 45 Este 0 -- -- 35
2019-06-24 09:00:00 22.4 32 Este 43 Este 0 -- -- 41
2019-06-24 08:00:00 21.1 30 Este 42 Este 0 -- -- 44
2019-06-24 07:00:00 20.1 31 Este 42 Este 0 -- -- 46
2019-06-24 06:00:00 20.1 28 Este 41 Este 0 -- -- 47
2019-06-24 05:00:00 20.5 35 Este 48 Este 0 -- -- 47
2019-06-24 04:00:00 21.4 34 Este 50 Este 0 -- -- 41
2019-06-24 03:00:00 22 36 Este 57 Este 0 -- -- 39
2019-06-24 02:00:00 22.4 39 Este 61 Este 0 -- -- 42
2019-06-24 01:00:00 23.1 43 Este 58 Este 0 -- -- 42
2019-06-24 00:00:00 24.5 36 Este 48 Este 0 -- -- 42
2019-06-23 23:00:00 27 30 Este 41 Este 0 -- -- 36
2019-06-23 22:00:00 28.7 28 Este 43 Sudeste 0 -- -- 34
2019-06-23 21:00:00 30.3 31 Este 54 Este 0 -- -- 31
2019-06-23 20:00:00 31.1 36 Este 54 Este 0 -- -- 31
2019-06-23 19:00:00 31.8 32 Este 46 Este 0 -- -- 29
2019-06-23 18:00:00 32.3 30 Este 49 Este 0 -- -- 31
2019-06-23 17:00:00 33.8 24 Este 42 Este 0 -- -- 29
2019-06-23 16:00:00 34.1 14 Sudeste 44 Este 0 -- -- 29
2019-06-23 15:00:00 33.3 15 Este 39 Sudeste 0 -- -- 30
2019-06-23 14:00:00 31.9 14 Sudeste 33 Sudeste 0 -- -- 30
2019-06-23 13:00:00 30.4 15 Sudeste 36 Este 0 -- -- 35
2019-06-23 12:00:00 28.7 19 Este 38 Este 0 -- -- 38
2019-06-23 11:00:00 27 22 Este 37 Este 0 -- -- 44
2019-06-23 10:00:00 24.1 24 Este 37 Este 0 -- -- 51
2019-06-23 09:00:00 22.1 27 Este 37 Este 0 -- -- 56
2019-06-23 08:00:00 20.6 20 Este 31 Este 0 -- -- 61
2019-06-23 07:00:00 18.8 22 Este 32 Este 0 -- -- 67
2019-06-23 06:00:00 18.6 25 Este 39 Este 0 -- -- 70
2019-06-23 05:00:00 18.6 30 Este 39 Este 0 -- -- 71
2019-06-23 04:00:00 19.1 17 Este 43 Este 0 -- -- 71
2019-06-23 03:00:00 20.1 33 Este 45 Este 0 -- -- 67
2019-06-23 02:00:00 21.3 26 Este 38 Este 0 -- -- 59
2019-06-23 01:00:00 22.8 20 Este 28 Este 0 -- -- 48
2019-06-23 00:00:00 23.7 20 Este 30 Sudeste 0 -- -- 45
2019-06-22 23:00:00 24.5 22 Este 32 Este 0 -- -- 39
2019-06-22 22:00:00 25.7 19 Este 33 Este 0 -- -- 36
2019-06-22 21:00:00 27.5 22 Este 33 Este 0 -- -- 33
2019-06-22 20:00:00 29.5 13 Sudeste 27 Este 0 -- -- 30
2019-06-22 19:00:00 30.3 9 Sudeste 26 Este 0 -- -- 29
2019-06-22 18:00:00 -- 13 Sudeste 23 Sudeste 0 -- -- --
2019-06-22 17:00:00 30.2 9 Sudeste 26 Sudeste 0 -- -- 28
2019-06-22 16:00:00 29.4 13 Sudeste 24 Sudeste 0 -- -- 28
2019-06-22 15:00:00 27.9 7 Sudeste 21 Sudeste 0 -- -- 32
2019-06-22 14:00:00 26.9 6 Sudeste 21 Sudeste 0 -- -- 34
2019-06-22 13:00:00 24.7 7 Sudeste 17 Sudoeste 0 -- -- 39
2019-06-22 12:00:00 21.5 7 Oeste 16 Oeste 0 -- -- 43
2019-06-22 11:00:00 19.1 9 Oeste 15 Oeste 0 -- -- 51
2019-06-22 10:00:00 16.6 6 Oeste 12 Oeste 0 -- -- 62
2019-06-22 09:00:00 13.9 7 Oeste 13 Oeste 0 -- -- 74
2019-06-22 08:00:00 11.8 4 Este 10 Este 0 -- -- 82
2019-06-22 07:00:00 9.5 6 Este 8 Nordeste 0 -- -- 89
2019-06-22 06:00:00 10.1 0 Calma 6 Este 0 -- -- 86
2019-06-22 05:00:00 10.5 0 Calma 15 Oeste 0 -- -- 86
2019-06-22 04:00:00 10.8 7 Oeste 14 Oeste 0 -- -- 84
2019-06-22 03:00:00 12 13 Oeste 27 Oeste 0 -- -- 79
2019-06-22 02:00:00 12.8 19 Noroeste 29 Noroeste 0 -- -- 77
2019-06-22 01:00:00 13.1 14 Oeste 27 Noroeste 0 -- -- 77
2019-06-22 00:00:00 -- 14 Oeste 26 Oeste 0 -- -- --
2019-06-21 23:00:00 15.4 19 Oeste 32 Oeste 0 -- -- 68
2019-06-21 22:00:00 16.9 20 Oeste 33 Noroeste 0 -- -- 65
2019-06-21 21:00:00 18.8 21 Oeste 39 Noroeste 0 -- -- 58
2019-06-21 20:00:00 21.4 23 Oeste 38 Oeste 0 -- -- 49
2019-06-21 19:00:00 22.1 22 Oeste 43 Noroeste 0 -- -- 47
2019-06-21 18:00:00 22.9 20 Noroeste 40 Oeste 0 -- -- 47
2019-06-21 17:00:00 22.7 25 Oeste 45 Oeste 0 -- -- 48
2019-06-21 16:00:00 22.9 22 Oeste 42 Oeste 0 -- -- 50
2019-06-21 15:00:00 21.8 24 Oeste 37 Oeste 0 -- -- 54
2019-06-21 14:00:00 20.3 22 Oeste 32 Oeste 0 -- -- 61
2019-06-21 13:00:00 18.8 26 Oeste 36 Oeste 0 -- -- 68
2019-06-21 12:00:00 16.8 17 Oeste 26 Oeste 0 -- -- 77
2019-06-21 11:00:00 14.9 14 Oeste 23 Oeste 0 -- -- 87
2019-06-21 10:00:00 14.1 14 Oeste 23 Oeste 0 -- -- 90
2019-06-21 09:00:00 13.6 16 Oeste 21 Oeste 0 -- -- 95
2019-06-21 08:00:00 13.4 10 Oeste 22 Oeste 0 -- -- 95
2019-06-21 07:00:00 13.3 18 Oeste 24 Oeste 0 -- -- 96
2019-06-21 06:00:00 13.7 12 Oeste 22 Oeste 0 -- -- 95
2019-06-21 05:00:00 13.8 9 Oeste 24 Oeste 0.4 -- -- 94
2019-06-21 04:00:00 14.2 18 Oeste 26 Oeste 0 -- -- 90
2019-06-21 03:00:00 14.4 15 Oeste 23 Oeste 0 -- -- 89
2019-06-21 02:00:00 14.7 11 Oeste 19 Oeste 0 -- -- 89
2019-06-21 01:00:00 14.7 14 Oeste 19 Oeste 0 -- -- 89
2019-06-21 00:00:00 14.8 12 Oeste 30 Oeste 0 -- -- 87
2019-06-20 23:00:00 15.6 18 Oeste 28 Oeste 0 -- -- 85
2019-06-20 22:00:00 17.8 9 Noroeste 30 Oeste 0 -- -- 71
2019-06-20 21:00:00 19.2 12 Oeste 39 Oeste 0 -- -- 65
2019-06-20 20:00:00 20.7 24 Oeste 45 Oeste 0 -- -- 59
2019-06-20 19:00:00 23.9 21 Noroeste 36 Noroeste 0 -- -- 51
2019-06-20 18:00:00 24.4 27 Oeste 40 Oeste 0 -- -- 49
2019-06-20 17:00:00 25.4 10 Oeste 27 Oeste 0 -- -- 46
2019-06-20 16:00:00 26.3 11 Sudoeste 27 Sudoeste 0 -- -- 42
2019-06-20 15:00:00 25.7 13 Oeste 27 Oeste 0 -- -- 45
2019-06-20 14:00:00 -- 14 Oeste 26 Oeste 0 -- -- --
2019-06-20 13:00:00 22.5 18 Oeste 29 Oeste 0 -- -- 55
2019-06-20 12:00:00 21.4 18 Oeste 37 Oeste 0 -- -- 60
2019-06-20 11:00:00 19.7 19 Oeste 30 Oeste 0 -- -- 64
2019-06-20 10:00:00 18.2 20 Oeste 29 Oeste 0 -- -- 70
2019-06-20 09:00:00 16 19 Oeste 27 Oeste 0 -- -- 78
2019-06-20 08:00:00 15 14 Oeste 20 Oeste 0 -- -- 81
2019-06-20 07:00:00 14.1 9 Oeste 18 Oeste 0 -- -- 84
2019-06-20 06:00:00 14.2 13 Oeste 24 Oeste 0 -- -- 84
2019-06-20 05:00:00 14.9 12 Oeste 22 Oeste 0 -- -- 81
2019-06-20 04:00:00 15.7 13 Oeste 22 Oeste 0 -- -- 78
2019-06-20 03:00:00 17.1 9 Oeste 22 Oeste 0 -- -- 75
2019-06-20 02:00:00 18.5 7 Oeste 11 Oeste 0 -- -- 62
2019-06-20 01:00:00 20 3 Oeste 8 Oeste 0 -- -- 53
2019-06-20 00:00:00 21.3 3 Este 17 Noroeste 0 -- -- 50
2019-06-19 23:00:00 22.3 15 Noroeste 37 Noroeste 0 -- -- 48
2019-06-19 22:00:00 24.5 4 Nordeste 8 Noroeste 0 -- -- 39
2019-06-19 21:00:00 26.8 3 Nordeste 22 Noroeste 0 -- -- 35
2019-06-19 20:00:00 28.3 9 Noroeste 22 Noroeste 0 -- -- 32
2019-06-19 19:00:00 28.6 7 Oeste 26 Noroeste 0 -- -- 33
2019-06-19 18:00:00 28.6 11 Noroeste 23 Noroeste 0 -- -- 33
2019-06-19 17:00:00 28.1 6 Noroeste 27 Oeste 0 -- -- 33
2019-06-19 16:00:00 27.8 13 Oeste 24 Oeste 0 -- -- 34
2019-06-19 15:00:00 26.2 13 Oeste -- -- -- -- -- 37
2019-06-19 14:00:00 25.8 9 Sudoeste 27 Sudoeste 0 -- -- 38
2019-06-19 13:00:00 26 13 Oeste -- -- -- -- -- 37
2019-06-19 12:00:00 -- -- -- -- -- -- -- -- --
2019-06-19 11:00:00 -- -- -- -- -- -- -- -- --
2019-06-19 10:00:00 -- -- -- -- -- -- -- -- --
2019-06-19 09:00:00 -- -- -- -- -- -- -- -- --
2019-06-19 08:00:00 -- -- -- -- -- -- -- -- --
2019-06-19 07:00:00 -- -- -- -- -- -- -- -- --
2019-06-19 06:00:00 -- -- -- -- -- -- -- -- --
2019-06-19 05:00:00 -- -- -- -- -- -- -- -- --
2019-06-19 04:00:00 -- -- -- -- -- -- -- -- --
2019-06-19 03:00:00 -- -- -- -- -- -- -- -- --
2019-06-19 02:00:00 -- -- -- -- -- -- -- -- --
2019-06-19 01:00:00 -- -- -- -- -- -- -- -- --
2019-06-19 00:00:00 -- -- -- -- -- -- -- -- --
2019-06-18 23:00:00 -- -- -- -- -- -- -- -- --
2019-06-18 22:00:00 -- -- -- -- -- -- -- -- --
2019-06-18 21:00:00 -- -- -- -- -- -- -- -- --
2019-06-18 20:00:00 -- -- -- -- -- -- -- -- --
2019-06-18 19:00:00 30.6 32 Este 47 Este 0 -- -- 27
2019-06-18 18:00:00 33.6 13 Sudeste 29 Sur 0 -- -- 22
2019-06-18 17:00:00 33 14 Sudeste 32 Sudeste 0 -- -- 21
2019-06-18 16:00:00 32.6 11 Sur 36 Este 0 -- -- 21
2019-06-18 15:00:00 31 13 Sudeste 31 Este 0 -- -- 22
2019-06-18 14:00:00 30.5 15 Sur 37 Este 0 -- -- 23
2019-06-18 13:00:00 29.8 22 Este 35 Este 0 -- -- 27
2019-06-18 12:00:00 27.5 23 Este 37 Este 0 -- -- 29
2019-06-18 11:00:00 25.6 16 Sudeste 30 Este 0 -- -- 33
2019-06-18 10:00:00 22.2 15 Este 40 Este 0 -- -- 37
2019-06-18 09:00:00 21.2 24 Este 40 Este 0 -- -- 38
2019-06-18 08:00:00 19.8 31 Este 49 Este 0 -- -- 41
2019-06-18 07:00:00 19.1 25 Este 41 Este 0 -- -- 41
2019-06-18 06:00:00 19.2 26 Este 42 Este 0 -- -- 41
2019-06-18 05:00:00 19.5 26 Este 45 Este 0 -- -- 42
2019-06-18 04:00:00 19.6 35 Este 51 Este 0 -- -- 46
2019-06-18 03:00:00 19.8 37 Este 50 Este 0 -- -- 50
2019-06-18 02:00:00 20.2 36 Este 51 Este 0 -- -- 55
2019-06-18 01:00:00 22.1 36 Este 47 Este 0 -- -- 51
2019-06-18 00:00:00 24.8 17 Sudeste 36 Sudeste 0 -- -- 38
2019-06-17 23:00:00 26 23 Este 39 Este 0 -- -- 33
2019-06-17 22:00:00 26.7 24 Este 35 Este 0 -- -- 35
2019-06-17 21:00:00 28.5 24 Este 32 Este 0 -- -- 26
2019-06-17 20:00:00 30.7 14 Sudeste 22 Sudeste 0 -- -- 21
2019-06-17 19:00:00 32.4 11 Sudoeste 24 Oeste 0 -- -- 20
2019-06-17 18:00:00 32.3 8 Noroeste 21 Sudeste 0 -- -- 18
2019-06-17 17:00:00 32.2 4 Sudoeste 29 Sudeste 0 -- -- 16
2019-06-17 16:00:00 32.1 6 Sudoeste 27 Sudoeste 0 -- -- 19
2019-06-17 15:00:00 30.4 9 Sudeste 25 Sur 0 -- -- 21
2019-06-17 14:00:00 29.9 8 Sudeste 22 Este 0 -- -- 25
2019-06-17 13:00:00 29.2 12 Este 22 Sudeste 0 -- -- 28
2019-06-17 12:00:00 26.9 9 Sur 21 Este 0 -- -- 33
2019-06-17 11:00:00 25.8 11 Este 21 Este 0 -- -- 37
2019-06-17 10:00:00 23.6 13 Este 25 Este 0 -- -- 41
2019-06-17 09:00:00 21.2 5 Sudeste 15 Este 0 -- -- 48
2019-06-17 08:00:00 18.9 7 Este 24 Este 0 -- -- 54
2019-06-17 07:00:00 17.4 15 Este 21 Este 0 -- -- 57
2019-06-17 06:00:00 17.5 4 Este 25 Este 0 -- -- 58
2019-06-17 05:00:00 18.2 18 Este 25 Este 0 -- -- 55
2019-06-17 04:00:00 18.5 12 Este 22 Este 0 -- -- 55
2019-06-17 03:00:00 19 15 Este 22 Este 0 -- -- 53
2019-06-17 02:00:00 20.3 16 Este 24 Este 0 -- -- 44
2019-06-17 01:00:00 21.5 14 Este 22 Este 0 -- -- 40
2019-06-17 00:00:00 21.8 15 Este 23 Este 0 -- -- 44
2019-06-16 23:00:00 22.4 12 Este 18 Este 0 -- -- 39
2019-06-16 22:00:00 24.1 13 Este 16 Este 0 -- -- 33
2019-06-16 21:00:00 26.1 10 Este 20 Nordeste 0 -- -- 26
2019-06-16 20:00:00 26.9 14 Este 27 Nordeste 0 -- -- 24
2019-06-16 19:00:00 28.2 16 Nordeste 23 Nordeste 0 -- -- 23
2019-06-16 18:00:00 29.1 9 Noroeste 30 Oeste 0 -- -- 22
2019-06-16 17:00:00 28.2 6 Norte 30 Oeste 0 -- -- 23
2019-06-16 16:00:00 27.9 6 Noroeste 23 Oeste 0 -- -- 25
2019-06-16 15:00:00 26.7 11 Oeste 25 Oeste 0 -- -- 28
2019-06-16 14:00:00 26.5 6 Sudoeste 18 Sudoeste 0 -- -- 30
2019-06-16 13:00:00 24.1 5 Sudoeste 20 Oeste 0 -- -- 36
2019-06-16 12:00:00 22.3 4 Oeste 17 Oeste 0 -- -- 42
2019-06-16 11:00:00 19.5 10 Oeste 17 Sudoeste 0 -- -- 48
2019-06-16 10:00:00 17.3 9 Oeste 13 Oeste 0 -- -- 55
2019-06-16 09:00:00 14.6 3 Oeste 7 Nordeste 0 -- -- 65
2019-06-16 08:00:00 12 5 Este 9 Nordeste 0 -- -- 73
2019-06-16 07:00:00 9.7 5 Nordeste 9 Este 0 -- -- 81
2019-06-16 06:00:00 10 5 Nordeste 7 Nordeste 0 -- -- 81
2019-06-16 05:00:00 10.6 3 Este 6 Este 0 -- -- 77
2019-06-16 04:00:00 11.4 0 Calma 13 Oeste 0 -- -- 73
2019-06-16 03:00:00 12.4 9 Oeste 14 Oeste 0 -- -- 69
2019-06-16 02:00:00 12.7 11 Oeste 14 Oeste 0 -- -- 70
2019-06-16 01:00:00 13 8 Oeste 19 Oeste 0 -- -- 69
2019-06-16 00:00:00 13.9 11 Oeste 16 Oeste 0 -- -- 64
2019-06-15 23:00:00 16.3 7 Oeste 13 Oeste 0 -- -- 52
2019-06-15 22:00:00 18.5 10 Noroeste 22 Noroeste 0 -- -- 44
2019-06-15 21:00:00 20.5 14 Noroeste 25 Oeste 0 -- -- 40
2019-06-15 20:00:00 22.1 13 Noroeste 27 Noroeste 0 -- -- 37
2019-06-15 19:00:00 23.2 16 Noroeste 33 Oeste 0 -- -- 33
2019-06-15 18:00:00 23.4 19 Oeste 39 Oeste 0 -- -- 33
2019-06-15 17:00:00 22.9 20 Oeste 40 Oeste 0 -- -- 34
2019-06-15 16:00:00 23 21 Oeste 45 Oeste 0 -- -- 35
2019-06-15 15:00:00 22.2 19 Oeste 39 Oeste 0 -- -- 36
2019-06-15 14:00:00 21.4 15 Oeste 40 Oeste 0 -- -- 37
2019-06-15 13:00:00 19.4 20 Noroeste 35 Oeste 0 -- -- 48
2019-06-15 12:00:00 17.7 22 Oeste 35 Oeste 0 -- -- 55
2019-06-15 11:00:00 16.7 21 Oeste 30 Oeste 0 -- -- 61
2019-06-15 10:00:00 14.9 15 Oeste 30 Oeste 0 -- -- 68
2019-06-15 09:00:00 12.8 25 Oeste 33 Oeste 0 -- -- 76
2019-06-15 08:00:00 11.2 15 Oeste 26 Oeste 0 -- -- 83
2019-06-15 07:00:00 10.8 14 Oeste 29 Oeste 0 -- -- 84
2019-06-15 06:00:00 11.5 20 Oeste 31 Oeste 0 -- -- 82
2019-06-15 05:00:00 11.3 15 Oeste 24 Oeste 0 -- -- 86
2019-06-15 04:00:00 10.9 8 Oeste 16 Oeste 0 -- -- 89
2019-06-15 03:00:00 11.8 8 Oeste 29 Oeste 0 -- -- 85
2019-06-15 02:00:00 13 16 Oeste 41 Oeste 0 -- -- 81
2019-06-15 01:00:00 14.2 13 Oeste 23 Oeste 0 -- -- 76
2019-06-15 00:00:00 15.5 11 Oeste 27 Oeste 0 -- -- 72
2019-06-14 23:00:00 21.3 3 Oeste 12 Sudoeste 0 -- -- 32
2019-06-14 22:00:00 23.3 5 Sudoeste 14 Sur 0 -- -- 35
2019-06-14 21:00:00 26.1 10 Sudoeste 24 Sudeste 0 -- -- 34
2019-06-14 20:00:00 26.9 12 Sudeste 21 Sudeste 0 -- -- 34
2019-06-14 19:00:00 27 8 Sur 24 Oeste 0 -- -- 32
2019-06-14 18:00:00 27.3 6 Este 28 Este 0 -- -- 30
2019-06-14 17:00:00 27 6 Este 15 Este 0 -- -- 32
2019-06-14 16:00:00 25.7 6 Este 18 Oeste 0 -- -- 39
2019-06-14 15:00:00 23.4 8 Oeste 20 Sudoeste 0 -- -- 44
2019-06-14 14:00:00 20.9 3 Sudeste 21 Este 0 -- -- 48
2019-06-14 13:00:00 18.4 10 Este 15 Este 0 -- -- 52
2019-06-14 12:00:00 15.7 5 Sur 22 Oeste 0 -- -- 65
2019-06-14 11:00:00 15.7 18 Oeste 24 Oeste 0 -- -- 66
2019-06-14 10:00:00 15.9 4 Este 10 Este 0 -- -- 57
2019-06-14 09:00:00 14.1 4 Oeste 6 Oeste 0 -- -- 61
2019-06-14 08:00:00 13 3 Este 6 Nordeste 0 -- -- 51
2019-06-14 07:00:00 12.4 3 Nordeste 7 Este 0 -- -- 51
2019-06-14 06:00:00 13 0 Calma 13 Oeste 0 -- -- 46
2019-06-14 05:00:00 13.7 9 Oeste 15 Oeste 0 -- -- 44
2019-06-14 04:00:00 16.2 5 Este 30 Este 0 -- -- 43
2019-06-14 03:00:00 16.7 20 Este 43 Este 0 -- -- 43
2019-06-14 02:00:00 16.9 36 Este 55 Este 0 -- -- 42
2019-06-14 01:00:00 17.5 38 Este 57 Este 0 -- -- 37
2019-06-14 00:00:00 18.4 44 Este 60 Este 0 -- -- 36
2019-06-13 23:00:00 19.2 40 Este 56 Este 0 -- -- 42
2019-06-13 22:00:00 19.6 35 Este 52 Este 0 -- -- 46
2019-06-13 21:00:00 21.5 33 Este 60 Sudeste 0 -- -- 39
2019-06-13 20:00:00 23.4 41 Este 63 Este 0 -- -- 44
2019-06-13 19:00:00 25.5 37 Este 64 Este 0 -- -- 35
2019-06-13 18:00:00 25.7 37 Este 66 Este 0 -- -- 39
2019-06-13 17:00:00 25.7 29 Este 51 Este 0 -- -- 40
2019-06-13 16:00:00 25.1 35 Este 57 Este 0 -- -- 42
2019-06-13 15:00:00 24.5 31 Este 55 Este 0 -- -- 44
2019-06-13 14:00:00 23.2 34 Este 53 Este 0 -- -- 47
2019-06-13 13:00:00 21.6 36 Este 57 Sudeste 0 -- -- 49
2019-06-13 12:00:00 20.6 32 Este 52 Este 0 -- -- 50
2019-06-13 11:00:00 18 36 Este 50 Este 0 -- -- 55
2019-06-13 10:00:00 15.8 36 Este 51 Este 0 -- -- 55
2019-06-13 09:00:00 14.1 33 Este 45 Este 0 -- -- 56
2019-06-13 08:00:00 12.1 28 Este 42 Este 0 -- -- 60
2019-06-13 07:00:00 11.7 32 Este 49 Este 0 -- -- 59
2019-06-13 06:00:00 11.7 36 Este 52 Este 0 -- -- 59
2019-06-13 05:00:00 11.1 32 Este 44 Este 0 -- -- 64
2019-06-13 04:00:00 11.7 31 Este 55 Este 0 -- -- 63
2019-06-13 03:00:00 12.5 30 Este 45 Este 0 -- -- 60
2019-06-13 02:00:00 14.8 29 Este 44 Este 0 -- -- 47
2019-06-13 01:00:00 15.8 29 Este 44 Sudeste 0 -- -- 43
2019-06-13 00:00:00 15.9 22 Este 35 Sudeste 0 -- -- 45
2019-06-12 23:00:00 16.7 24 Este 34 Este 0 -- -- 41
2019-06-12 22:00:00 17.8 22 Este 37 Este 0 -- -- 38
2019-06-12 21:00:00 20.2 14 Este 25 Sudeste 0 -- -- 33
2019-06-12 20:00:00 20.9 14 Este 26 Este 0 -- -- 31
2019-06-12 19:00:00 20.2 16 Este 32 Este 0 -- -- 32
2019-06-12 18:00:00 21.7 9 Sur 23 Este 0 -- -- 31
2019-06-12 17:00:00 21.6 11 Este 23 Este 0 -- -- 30
2019-06-12 16:00:00 21.1 9 Este 21 Este 0 -- -- 30
2019-06-12 15:00:00 19.5 7 Oeste 29 Oeste 0 -- -- 33
2019-06-12 14:00:00 18.7 10 Sudoeste 21 Sudoeste 0 -- -- 36
2019-06-12 13:00:00 17.6 14 Oeste 20 Oeste 0 -- -- 39
2019-06-12 12:00:00 15.8 5 Noroeste 19 Oeste 0 -- -- 43
2019-06-12 11:00:00 13.9 10 Sudoeste 24 Oeste 0 -- -- 49
2019-06-12 10:00:00 12.4 12 Oeste 17 Oeste 0 -- -- 58
2019-06-12 09:00:00 10.5 7 Oeste 11 Oeste 0 -- -- 68
2019-06-12 08:00:00 7.6 5 Este 8 Nordeste 0 -- -- 79
2019-06-12 07:00:00 5 5 Este 7 Este 0 -- -- 85
2019-06-12 06:00:00 5.5 0 Calma 8 Este 0 -- -- 83
2019-06-12 05:00:00 6.8 0 Calma 10 Oeste 0 -- -- 80
2019-06-12 04:00:00 8.5 5 Noroeste 15 Noroeste 0 -- -- 71
2019-06-12 03:00:00 8.9 9 Noroeste 18 Norte 0 -- -- 72
2019-06-12 02:00:00 9.1 8 Noroeste 20 Noroeste 0 -- -- 71
2019-06-12 01:00:00 9.4 11 Noroeste 19 Noroeste 0 -- -- 70
2019-06-12 00:00:00 9.9 12 Noroeste 30 Noroeste 0 -- -- 67
2019-06-11 23:00:00 10.4 19 Noroeste 31 Noroeste 0 -- -- 65
2019-06-11 22:00:00 11.3 17 Noroeste 41 Noroeste 0 -- -- 64
2019-06-11 21:00:00 13.2 24 Noroeste 41 Noroeste 0 -- -- 54
2019-06-11 20:00:00 14.4 22 Noroeste 46 Noroeste 0 -- -- 49
2019-06-11 19:00:00 15.9 21 Noroeste 49 Noroeste 0 -- -- 44
2019-06-11 18:00:00 16 21 Noroeste 52 Oeste 0 -- -- 42
2019-06-11 17:00:00 16.6 26 Oeste 45 Oeste 0 -- -- 41
2019-06-11 16:00:00 16.1 26 Noroeste 51 Noroeste 0 -- -- 43
2019-06-11 15:00:00 16.1 24 Noroeste 59 Oeste 0 -- -- 45
2019-06-11 14:00:00 15.5 26 Noroeste 45 Oeste 0 -- -- 49
2019-06-11 13:00:00 14 27 Oeste 39 Noroeste 0 -- -- 58
2019-06-11 12:00:00 11.2 20 Oeste 33 Oeste 0 -- -- 80
2019-06-11 11:00:00 9.3 15 Oeste 30 Oeste 0.2 -- -- 90
2019-06-11 10:00:00 8.8 13 Noroeste 29 Noroeste 0.2 -- -- 89
2019-06-11 09:00:00 8.4 18 Noroeste 31 Noroeste 0 -- -- 86
2019-06-11 08:00:00 8.1 19 Oeste 34 Noroeste 0.2 -- -- 89
2019-06-11 07:00:00 8.1 18 Oeste 28 Noroeste 0 -- -- 89
2019-06-11 06:00:00 8.5 17 Noroeste 29 Noroeste 0.2 -- -- 83
2019-06-11 05:00:00 9.6 12 Oeste 24 Noroeste 0 -- -- 73
2019-06-11 04:00:00 9.8 12 Oeste 22 Oeste 0 -- -- 72
2019-06-11 03:00:00 9.5 12 Oeste 27 Oeste 0 -- -- 83
2019-06-11 02:00:00 9.8 18 Oeste 27 Oeste 0 -- -- 82
2019-06-11 01:00:00 11.3 15 Oeste 29 Oeste 0 -- -- 65
2019-06-11 00:00:00 12.2 18 Noroeste 36 Oeste 0 -- -- 54
2019-06-10 23:00:00 12.8 14 Oeste 34 Noroeste 0 -- -- 54
2019-06-10 22:00:00 12.9 15 Noroeste 36 Noroeste 0 -- -- 56
2019-06-10 21:00:00 13.5 22 Noroeste 44 Noroeste 0 -- -- 56
2019-06-10 20:00:00 15 19 Noroeste 35 Noroeste 0 -- -- 51
2019-06-10 19:00:00 16.5 23 Noroeste 45 Noroeste 0 -- -- 47
2019-06-10 18:00:00 18.1 28 Oeste 44 Oeste 0 -- -- 43
2019-06-10 17:00:00 18.7 22 Noroeste 46 Noroeste 0 -- -- 45
2019-06-10 16:00:00 18.5 22 Oeste 46 Noroeste 0 -- -- 48
2019-06-10 15:00:00 18.1 28 Noroeste 55 Oeste 0 -- -- 49
2019-06-10 14:00:00 16.9 32 Oeste 54 Oeste 0 -- -- 52
2019-06-10 13:00:00 16.6 29 Oeste 52 Oeste 0 -- -- 55
2019-06-10 12:00:00 15.6 30 Oeste 51 Oeste 0 -- -- 60
2019-06-10 11:00:00 14.6 31 Oeste 51 Oeste 0 -- -- 63
2019-06-10 10:00:00 13.2 30 Oeste 51 Noroeste 0 -- -- 69
2019-06-10 09:00:00 11.8 27 Oeste 46 Oeste 0 -- -- 74
2019-06-10 08:00:00 10.6 27 Oeste 45 Oeste 0 -- -- 80
2019-06-10 07:00:00 10 27 Oeste 46 Oeste 0 -- -- 85
2019-06-10 06:00:00 10.1 19 Oeste 34 Noroeste 0 -- -- 85
2019-06-10 05:00:00 10.6 22 Oeste 38 Oeste 0 -- -- 84
2019-06-10 04:00:00 11 22 Oeste 40 Noroeste 0 -- -- 83
2019-06-10 03:00:00 11.9 22 Oeste 33 Oeste 0 -- -- 80
2019-06-10 02:00:00 12.6 22 Oeste 44 Oeste 0 -- -- 79
2019-06-10 01:00:00 13.6 24 Oeste 42 Oeste 0 -- -- 75
2019-06-10 00:00:00 13.9 21 Oeste 40 Oeste 0 -- -- 76
2019-06-09 23:00:00 14.5 22 Oeste 39 Oeste 0 -- -- 75
2019-06-09 22:00:00 15.7 25 Oeste 36 Oeste 0 -- -- 71
2019-06-09 21:00:00 20 17 Noroeste 38 Noroeste 0 -- -- 54
2019-06-09 20:00:00 25.6 20 Noroeste 31 Noroeste 0 -- -- 37
2019-06-09 19:00:00 27.5 21 Oeste 29 Oeste 0 -- -- 27
2019-06-09 18:00:00 28.6 11 Sudoeste 31 Sudoeste 0 -- -- 25
2019-06-09 17:00:00 28.4 12 Oeste 23 Nordeste 0 -- -- 23
2019-06-09 16:00:00 28.1 9 Sur 21 Este 0 -- -- 27
2019-06-09 15:00:00 27.2 5 Sur 20 Sur 0 -- -- 28
2019-06-09 14:00:00 26.5 7 Este 18 Sur 0 -- -- 29
2019-06-09 13:00:00 25.4 11 Este 21 Sudeste 0 -- -- 30
2019-06-09 12:00:00 24 7 Este 26 Este 0 -- -- 30
2019-06-09 11:00:00 22.5 17 Este 27 Este 0 -- -- 29
2019-06-09 10:00:00 20.7 20 Este 27 Este 0 -- -- 33
2019-06-09 09:00:00 15.9 14 Este 23 Este 0 -- -- 49
2019-06-09 08:00:00 16.3 17 Este 30 Este 0 -- -- 41
2019-06-09 07:00:00 15.5 20 Este 34 Este 0 -- -- 43
2019-06-09 06:00:00 15.4 23 Este 35 Este 0 -- -- 46
2019-06-09 05:00:00 15.5 26 Este 41 Este 0 -- -- 50
2019-06-09 04:00:00 15.8 31 Este 45 Este 0 -- -- 50
2019-06-09 03:00:00 16.1 34 Este 52 Este 0 -- -- 45
2019-06-09 02:00:00 16.3 26 Este 42 Este 0 -- -- 46
2019-06-09 01:00:00 16.6 27 Este 53 Este 0 -- -- 44
2019-06-09 00:00:00 17 41 Este 62 Este 0 -- -- 44
2019-06-08 23:00:00 17.9 37 Este 56 Este 0 -- -- 42
2019-06-08 22:00:00 19.8 37 Este 48 Este 0 -- -- 42
2019-06-08 21:00:00 21.6 28 Este 46 Este 0 -- -- 40
2019-06-08 20:00:00 23.5 25 Sudeste 44 Este 0 -- -- 37
2019-06-08 19:00:00 24.6 30 Este 49 Este 0 -- -- 38
2019-06-08 18:00:00 24.1 30 Este 47 Este 0 -- -- 34
2019-06-08 17:00:00 24.5 21 Este 42 Este 0 -- -- 34
2019-06-08 16:00:00 25 23 Este 40 Este 0 -- -- 33
2019-06-08 15:00:00 24.5 19 Este 32 Sudeste 0 -- -- 32
2019-06-08 14:00:00 23.3 14 Este 40 Este 0 -- -- 33
2019-06-08 13:00:00 22.2 19 Sudeste 31 Este 0 -- -- 33
2019-06-08 12:00:00 18.9 11 Oeste 18 Oeste 0 -- -- 43
2019-06-08 11:00:00 15.8 12 Oeste 18 Oeste 0 -- -- 54
2019-06-08 10:00:00 13.2 9 Oeste 14 Oeste 0 -- -- 59
2019-06-08 09:00:00 10.5 2 Sudoeste 6 Sudoeste 0 -- -- 69
2019-06-08 08:00:00 8.7 0 Calma 5 Este 0 -- -- 76
2019-06-08 07:00:00 6.8 2 Este 7 Este 0 -- -- 84
2019-06-08 06:00:00 6.6 3 Este 8 Este 0 -- -- 84
2019-06-08 05:00:00 7 3 Nordeste 8 Este 0 -- -- 85
2019-06-08 04:00:00 8.1 4 Este 5 Este 0 -- -- 82
2019-06-08 03:00:00 8.7 0 Calma 8 Oeste 0 -- -- 79
2019-06-08 02:00:00 10.2 3 Sur 15 Oeste 0 -- -- 74
2019-06-08 01:00:00 11.2 12 Oeste 18 Oeste 0 -- -- 72
2019-06-08 00:00:00 14.3 3 Noroeste 28 Oeste 0 -- -- 50
2019-06-07 23:00:00 16.1 13 Noroeste 23 Noroeste 0 -- -- 44
2019-06-07 22:00:00 16.1 5 Este 9 Noroeste 0 -- -- 41
2019-06-07 21:00:00 18.8 7 Noroeste 14 Noroeste 0 -- -- 35
2019-06-07 20:00:00 19.2 7 Oeste 27 Oeste 0 -- -- 36
2019-06-07 19:00:00 19.9 18 Oeste 27 Oeste 0 -- -- 33
2019-06-07 18:00:00 21.1 9 Oeste 30 Oeste 0 -- -- 32
2019-06-07 17:00:00 21.2 14 Oeste 33 Oeste 0 -- -- 31
2019-06-07 16:00:00 20.3 26 Oeste 38 Oeste 0 -- -- 32
2019-06-07 15:00:00 19.7 22 Oeste 38 Oeste 0 -- -- 36
2019-06-07 14:00:00 18.7 20 Oeste 35 Oeste 0 -- -- 39
2019-06-07 13:00:00 17.4 19 Oeste 40 Oeste 0 -- -- 40
2019-06-07 12:00:00 16.4 20 Oeste 46 Oeste 0 -- -- 42
2019-06-07 11:00:00 14.8 30 Oeste 44 Oeste 0 -- -- 49
2019-06-07 10:00:00 13.4 28 Oeste 37 Oeste 0 -- -- 60
2019-06-07 09:00:00 11.9 25 Oeste 32 Oeste 0 -- -- 68
2019-06-07 08:00:00 10.4 6 Oeste 25 Oeste 0.8 -- -- 85
2019-06-07 07:00:00 10.8 19 Oeste 32 Oeste 0.6 -- -- 82
2019-06-07 06:00:00 13.4 8 Este 37 Este 0.2 -- -- 86
2019-06-07 05:00:00 14 25 Este 40 Este 0 -- -- 79
2019-06-07 04:00:00 13.5 29 Este 48 Sudeste 0 -- -- 83
2019-06-07 03:00:00 14.2 33 Este 52 Este 0 -- -- 83
2019-06-07 02:00:00 14.7 33 Este 47 Este 0 -- -- 79
2019-06-07 01:00:00 15.2 33 Este 51 Este 0 -- -- 72
2019-06-07 00:00:00 16.1 35 Este 55 Este 0 -- -- 65
2019-06-06 23:00:00 17.1 40 Este 59 Este 0 -- -- 60
2019-06-06 22:00:00 18.8 35 Este 53 Este 0 -- -- 50
2019-06-06 21:00:00 19.9 36 Este 58 Este 0 -- -- 45
2019-06-06 20:00:00 21.2 32 Este 62 Este 0 -- -- 45
2019-06-06 19:00:00 23.1 34 Este 53 Sudeste 0 -- -- 41
2019-06-06 18:00:00 23.1 23 Sudeste 50 Este 0 -- -- 35
2019-06-06 17:00:00 24.8 23 Sudeste 44 Este 0 -- -- 28
2019-06-06 16:00:00 24 27 Este 48 Este 0 -- -- 30
2019-06-06 15:00:00 22.9 18 Sudeste 42 Este 0 -- -- 32
2019-06-06 14:00:00 21.7 15 Sudeste 36 Sudeste 0 -- -- 33
2019-06-06 13:00:00 19.8 17 Sudeste 37 Este 0 -- -- 42
2019-06-06 12:00:00 18.3 18 Sudeste 30 Este 0 -- -- 47
2019-06-06 11:00:00 17 9 Sudeste 22 Sudoeste 0 -- -- 48
2019-06-06 10:00:00 15.3 5 Este 12 Nordeste 0 -- -- 57
2019-06-06 09:00:00 11.3 3 Oeste 7 Este 0 -- -- 71
2019-06-06 08:00:00 8.6 5 Este 10 Este 0 -- -- 86
2019-06-06 07:00:00 7.7 8 Nordeste 10 Nordeste 0 -- -- 87
2019-06-06 06:00:00 8 6 Este 8 Este 0 -- -- 85
2019-06-06 05:00:00 8.5 0 Calma 3 Norte 0 -- -- 83
2019-06-06 04:00:00 9.2 4 Oeste 8 Oeste 0 -- -- 81
2019-06-06 03:00:00 9.4 0 Calma 10 Oeste 0 -- -- 80
2019-06-06 02:00:00 9.8 9 Oeste 23 Noroeste 0 -- -- 78
2019-06-06 01:00:00 9.4 13 Oeste 18 Oeste 0 -- -- 84
2019-06-06 00:00:00 9.5 9 Oeste 13 Oeste 0 -- -- 82
2019-06-05 23:00:00 11.2 8 Oeste 19 Oeste 0 -- -- 69
2019-06-05 22:00:00 12.1 9 Noroeste 26 Noroeste 0 -- -- 65
2019-06-05 21:00:00 13.7 13 Noroeste 28 Noroeste 0 -- -- 60
2019-06-05 20:00:00 15.6 18 Noroeste 37 Noroeste 0 -- -- 55
2019-06-05 19:00:00 16 22 Noroeste 36 Noroeste 0 -- -- 54
2019-06-05 18:00:00 16.2 19 Noroeste 37 Oeste 0 -- -- 57
2019-06-05 17:00:00 15.8 31 Oeste 51 Noroeste 0 -- -- 58
2019-06-05 16:00:00 14.3 31 Oeste 54 Oeste 0 -- -- 65
2019-06-05 15:00:00 14.1 26 Oeste 48 Oeste 0 -- -- 68
2019-06-05 14:00:00 12.3 23 Oeste 50 Oeste 0 -- -- 75
2019-06-05 13:00:00 12.4 22 Noroeste 40 Noroeste 0 -- -- 72
2019-06-05 12:00:00 12 23 Oeste 44 Noroeste 0 -- -- 86
2019-06-05 11:00:00 10.4 21 Oeste 40 Oeste 0 -- -- 95
2019-06-05 10:00:00 10.1 26 Oeste 38 Noroeste 1.6 -- -- 96
2019-06-05 09:00:00 -- 28 Oeste 36 Oeste 0.2 -- -- --
2019-06-05 08:00:00 10.3 13 Oeste 24 Oeste 1 -- -- 95
2019-06-05 07:00:00 10.3 16 Oeste 25 Oeste 2.4 -- -- 93
2019-06-05 06:00:00 11 12 Oeste 26 Noroeste 0 -- -- 92
2019-06-05 05:00:00 11.5 13 Oeste 19 Oeste 0 -- -- 87
2019-06-05 04:00:00 11.9 4 Noroeste 17 Oeste 0 -- -- 88
2019-06-05 03:00:00 11.6 3 Oeste 17 Oeste 0 -- -- 87
2019-06-05 02:00:00 12.3 9 Oeste 22 Noroeste 0 -- -- 85
2019-06-05 01:00:00 13.2 11 Oeste 21 Oeste 0 -- -- 89
2019-06-05 00:00:00 14.1 9 Oeste 24 Oeste 0 -- -- 91
2019-06-04 23:00:00 15.2 18 Oeste 34 Oeste 0.2 -- -- 90
2019-06-04 22:00:00 18.2 26 Oeste 34 Oeste 0.4 -- -- 82
2019-06-04 21:00:00 24.3 22 Noroeste 46 Este 0 -- -- 49
2019-06-04 20:00:00 27.2 27 Este 48 Sudeste 0 -- -- 35
2019-06-04 19:00:00 28.3 33 Este 52 Este 0 -- -- 35
2019-06-04 18:00:00 30.4 27 Este 50 Este 0 -- -- 30
2019-06-04 17:00:00 31.1 20 Este 43 Este 0 -- -- 30
2019-06-04 16:00:00 30.5 27 Este 44 Este 0 -- -- 30
2019-06-04 15:00:00 30.8 23 Este 46 Este 0 -- -- 30
2019-06-04 14:00:00 29.7 20 Sudeste 44 Este 0 -- -- 30
2019-06-04 13:00:00 28.5 15 Sudeste 35 Este 0 -- -- 32
2019-06-04 12:00:00 26 23 Este 38 Este 0 -- -- 34
2019-06-04 11:00:00 24.2 21 Este 38 Este 0 -- -- 36
2019-06-04 10:00:00 21.1 28 Este 40 Este 0 -- -- 42
2019-06-04 09:00:00 18.6 29 Este 44 Este 0 -- -- 46
2019-06-04 08:00:00 16.7 20 Este 28 Este 0 -- -- 50
2019-06-04 07:00:00 15.6 16 Este 30 Este 0 -- -- 52
2019-06-04 06:00:00 16.4 25 Este 36 Este 0 -- -- 50
2019-06-04 05:00:00 16.4 23 Este 37 Este 0 -- -- 51
2019-06-04 04:00:00 16.9 31 Este 43 Este 0 -- -- 50
2019-06-04 03:00:00 17.1 31 Este 48 Este 0 -- -- 51
2019-06-04 02:00:00 17.7 33 Este 48 Este 0 -- -- 51
2019-06-04 01:00:00 18.7 33 Este 46 Este 0 -- -- 48
2019-06-04 00:00:00 21.2 29 Este 43 Este 0 -- -- 46
2019-06-03 23:00:00 22.4 30 Este 44 Este 0 -- -- 49
2019-06-03 22:00:00 24.5 31 Este 45 Este 0 -- -- 40
2019-06-03 21:00:00 26.4 32 Este 52 Este 0 -- -- 40
2019-06-03 20:00:00 28.2 36 Este 47 Este 0 -- -- 34
2019-06-03 19:00:00 29.6 31 Este 45 Este 0 -- -- 31
2019-06-03 18:00:00 31 26 Este 41 Este 0 -- -- 29
2019-06-03 17:00:00 31.4 22 Este 33 Este 0 -- -- 27
2019-06-03 16:00:00 30.9 10 Sur 19 Este 0 -- -- 27
2019-06-03 15:00:00 29.8 9 Sudeste 22 Sudeste 0 -- -- 29
2019-06-03 14:00:00 29.3 10 Este 25 Sudeste 0 -- -- 30
2019-06-03 13:00:00 27.2 12 Este 20 Este 0 -- -- 32
2019-06-03 12:00:00 25.1 13 Este 29 Sudeste 0 -- -- 35
2019-06-03 11:00:00 22.4 18 Este 30 Este 0 -- -- 37
2019-06-03 10:00:00 20.5 19 Este 29 Este 0 -- -- 38
2019-06-03 09:00:00 19.2 8 Este 32 Este 0 -- -- 39
2019-06-03 08:00:00 18.2 28 Este 38 Este 0 -- -- 41
2019-06-03 07:00:00 17.1 16 Este 22 Nordeste 0 -- -- 47
2019-06-03 06:00:00 17.1 10 Este 22 Nordeste 0 -- -- 48
2019-06-03 05:00:00 17.3 10 Este 20 Nordeste 0 -- -- 51
2019-06-03 04:00:00 19.4 9 Este 44 Este 0 -- -- 44
2019-06-03 03:00:00 20.2 39 Este 57 Este 0 -- -- 44
2019-06-03 02:00:00 20.5 14 Este 31 Este 0 -- -- 45
2019-06-03 01:00:00 21.9 25 Este 47 Este 0 -- -- 44
2019-06-03 00:00:00 23.8 6 Sudeste 30 Este 0 -- -- 47
2019-06-02 23:00:00 24.5 23 Este 29 Este 0 -- -- 37
2019-06-02 22:00:00 26.1 14 Este 23 Este 0 -- -- 37
2019-06-02 21:00:00 -- 8 Este 22 Sudeste 0 -- -- --
2019-06-02 20:00:00 30.5 9 Sudeste 22 Este 0 -- -- 25
2019-06-02 19:00:00 31.5 12 Sudeste 23 Sudeste 0 -- -- 24
2019-06-02 18:00:00 31.9 10 Sur 19 Sudeste 0 -- -- 24
2019-06-02 17:00:00 32.7 9 Sur 22 Sudoeste 0 -- -- 23
2019-06-02 16:00:00 32.2 11 Sur 20 Sudeste 0 -- -- 23
2019-06-02 15:00:00 31.3 10 Sudeste 24 Sudeste 0 -- -- 26
2019-06-02 14:00:00 29.9 9 Sudeste 26 Este 0 -- -- 29
2019-06-02 13:00:00 29 13 Sudeste 30 Este 0 -- -- 30
2019-06-02 12:00:00 26.8 19 Este 27 Este 0 -- -- 33
2019-06-02 11:00:00 25.3 17 Este 25 Este 0 -- -- 35
2019-06-02 10:00:00 22.7 22 Este 33 Este 0 -- -- 40
2019-06-02 09:00:00 20.6 20 Este 31 Este 0 -- -- 42
2019-06-02 08:00:00 18 15 Este 23 Este 0 -- -- 49
2019-06-02 07:00:00 16.4 18 Este 26 Este 0 -- -- 51
2019-06-02 06:00:00 16.8 17 Este 30 Este 0 -- -- 49
2019-06-02 05:00:00 17 23 Este 30 Este 0 -- -- 50
2019-06-02 04:00:00 17.4 23 Este 33 Este 0 -- -- 51
2019-06-02 03:00:00 17.9 22 Este 31 Este 0 -- -- 51
2019-06-02 02:00:00 19 20 Este 29 Este 0 -- -- 52
2019-06-02 01:00:00 20.9 17 Este 23 Este 0 -- -- 44
2019-06-02 00:00:00 21.8 16 Este 28 Este 0 -- -- 42
2019-06-01 23:00:00 22.8 18 Este 24 Este 0 -- -- 41
2019-06-01 22:00:00 24.5 12 Este 18 Este 0 -- -- 36
2019-06-01 21:00:00 27.7 14 Este 25 Este 0 -- -- 31
2019-06-01 20:00:00 29.7 11 Sudeste 20 Este 0 -- -- 29
2019-06-01 19:00:00 30.5 7 Este 23 Este 0 -- -- 26
2019-06-01 18:00:00 30.8 11 Sudeste 33 Este 0 -- -- 26
2019-06-01 17:00:00 30.6 8 Sur 20 Sudeste 0 -- -- 26
2019-06-01 16:00:00 30.2 9 Sudeste 23 Sudeste 0 -- -- 27
2019-06-01 15:00:00 29.2 9 Este 24 Este 0 -- -- 30
2019-06-01 14:00:00 -- -- -- -- -- -- -- -- --
2019-06-01 13:00:00 27 10 Sudeste 23 Sudeste 0 -- -- 35
2019-06-01 12:00:00 25.5 13 Sudeste 31 Sudeste 0 -- -- 39
2019-06-01 11:00:00 24 16 Este 35 Este 0 -- -- 42
2019-06-01 10:00:00 21.4 24 Este 36 Este 0 -- -- 46
2019-06-01 09:00:00 19.7 24 Este 35 Este 0 -- -- 52
2019-06-01 08:00:00 17.1 20 Este 24 Este 0 -- -- 60
2019-06-01 07:00:00 15.1 14 Este 21 Este 0 -- -- 66
2019-06-01 06:00:00 15.8 16 Este 29 Este 0 -- -- 64
2019-06-01 05:00:00 16 18 Este 27 Este 0 -- -- 63
2019-06-01 04:00:00 16.5 19 Este 25 Este 0 -- -- 63
2019-06-01 03:00:00 16.6 14 Este 20 Este 0 -- -- 65
2019-06-01 02:00:00 17.7 14 Este 19 Este 0 -- -- 61
2019-06-01 01:00:00 19.7 12 Este 18 Este 0 -- -- 52
2019-06-01 00:00:00 20.1 14 Este 20 Nordeste 0 -- -- 52
2019-05-31 23:00:00 20.6 9 Este 14 Nordeste 0 -- -- 47
2019-05-31 22:00:00 22.2 8 Nordeste 12 Nordeste 0 -- -- 43
2019-05-31 21:00:00 26.6 0 Calma 18 Oeste 0 -- -- 31
2019-05-31 20:00:00 27.3 13 Oeste 24 Oeste 0 -- -- 33
2019-05-31 19:00:00 28.5 6 Noroeste 20 Oeste 0 -- -- 31
2019-05-31 18:00:00 28.4 12 Oeste 23 Oeste 0 -- -- 34
2019-05-31 17:00:00 27.9 8 Oeste 19 Oeste 0 -- -- 35
2019-05-31 16:00:00 27.1 12 Oeste 24 Oeste 0 -- -- 36
2019-05-31 15:00:00 26.3 15 Oeste 24 Oeste 0 -- -- 39
2019-05-31 14:00:00 26 8 Sudeste 19 Este 0 -- -- 36
2019-05-31 13:00:00 25.2 8 Este 23 Este 0 -- -- 38
2019-05-31 12:00:00 23.2 12 Este 21 Este 0 -- -- 41
2019-05-31 11:00:00 21.1 13 Este 25 Este 0 -- -- 46
2019-05-31 10:00:00 19.4 14 Este 22 Este 0 -- -- 49
2019-05-31 09:00:00 17.2 11 Este 17 Este 0 -- -- 58
2019-05-31 08:00:00 14.7 8 Este 14 Este 0 -- -- 65
2019-05-31 07:00:00 13.3 10 Nordeste 18 Este 0 -- -- 68
2019-05-31 06:00:00 13.2 12 Este 24 Este 0 -- -- 70
2019-05-31 05:00:00 13.3 15 Este 23 Este 0 -- -- 73
2019-05-31 04:00:00 13 13 Nordeste 19 Este 0 -- -- 77
2019-05-31 03:00:00 13.5 8 Nordeste 12 Este 0 -- -- 78
2019-05-31 02:00:00 14.7 4 Este 10 Oeste 0 -- -- 73
2019-05-31 01:00:00 16.8 7 Noroeste 12 Oeste 0 -- -- 66
2019-05-31 00:00:00 17 8 Oeste 15 Oeste 0 -- -- 63
2019-05-30 23:00:00 18.4 10 Oeste 23 Noroeste 0 -- -- 57
2019-05-30 22:00:00 20.6 9 Sudoeste 28 Noroeste 0 -- -- 47
2019-05-30 21:00:00 24.6 17 Noroeste 29 Oeste 0 -- -- 33
2019-05-30 20:00:00 26.7 22 Oeste 31 Oeste 0 -- -- 27
2019-05-30 19:00:00 27 16 Oeste 27 Oeste 0 -- -- 30
2019-05-30 18:00:00 26.6 17 Oeste 26 Oeste 0 -- -- 34
2019-05-30 17:00:00 26.3 7 Sudoeste 36 Oeste 0 -- -- 36
2019-05-30 16:00:00 24.7 10 Oeste 29 Oeste 0 -- -- 38
2019-05-30 15:00:00 23.6 14 Oeste 29 Oeste 0 -- -- 38
2019-05-30 14:00:00 22.3 19 Oeste 27 Oeste 0 -- -- 40
2019-05-30 13:00:00 20.1 12 Oeste 20 Oeste 0 -- -- 47
2019-05-30 12:00:00 18.1 14 Oeste 23 Oeste 0 -- -- 48
2019-05-30 11:00:00 15.7 14 Oeste 19 Oeste 0 -- -- 57
2019-05-30 10:00:00 13.8 13 Sudoeste 18 Oeste 0 -- -- 64
2019-05-30 09:00:00 10.9 7 Oeste 12 Sudoeste 0 -- -- 73
2019-05-30 08:00:00 9.1 0 Calma 9 Este 0 -- -- 78
2019-05-30 07:00:00 7.1 6 Este 8 Nordeste 0 -- -- 81
2019-05-30 06:00:00 7.8 5 Este 6 Este 0 -- -- 79
2019-05-30 05:00:00 8.5 3 Este 7 Este 0 -- -- 76
2019-05-30 04:00:00 9 0 Calma 11 Oeste 0 -- -- 75
2019-05-30 03:00:00 9.2 8 Noroeste 13 Oeste 0 -- -- 76
2019-05-30 02:00:00 9.3 10 Oeste 19 Oeste 0 -- -- 77
2019-05-30 01:00:00 10.1 12 Oeste 28 Oeste 0 -- -- 74
2019-05-30 00:00:00 11 17 Oeste 28 Oeste 0 -- -- 70
2019-05-29 23:00:00 12 19 Oeste 40 Oeste 0 -- -- 66
2019-05-29 22:00:00 13.6 16 Oeste 43 Oeste 0 -- -- 60
2019-05-29 21:00:00 15.4 23 Noroeste 48 Noroeste 0 -- -- 53
2019-05-29 20:00:00 17.1 25 Noroeste 46 Oeste 0 -- -- 47
2019-05-29 19:00:00 18.5 20 Oeste 42 Oeste 0 -- -- 44
2019-05-29 18:00:00 18.8 24 Noroeste 53 Oeste 0 -- -- 44
2019-05-29 17:00:00 18.5 28 Noroeste 57 Noroeste 0 -- -- 44
2019-05-29 16:00:00 18.6 26 Noroeste 48 Oeste 0 -- -- 43
2019-05-29 15:00:00 17.8 28 Noroeste 59 Oeste 0 -- -- 45
2019-05-29 14:00:00 17.6 25 Noroeste 53 Noroeste 0 -- -- 44
2019-05-29 13:00:00 16.5 23 Noroeste 49 Noroeste 0 -- -- 47
2019-05-29 12:00:00 15.4 24 Oeste 46 Oeste 0 -- -- 51
2019-05-29 11:00:00 14.7 26 Oeste 45 Oeste 0 -- -- 62
2019-05-29 10:00:00 13 12 Noroeste 45 Noroeste 0 -- -- 69
2019-05-29 09:00:00 10.7 21 Oeste 38 Oeste 0 -- -- 79
2019-05-29 08:00:00 9.5 18 Oeste 37 Oeste 0 -- -- 82
2019-05-29 07:00:00 9.1 24 Noroeste 47 Noroeste 0 -- -- 80
2019-05-29 06:00:00 9 24 Noroeste 39 Oeste 0 -- -- 79
2019-05-29 05:00:00 9.2 19 Noroeste 40 Oeste 0 -- -- 79
2019-05-29 04:00:00 9.3 23 Noroeste 39 Oeste 0 -- -- 79
2019-05-29 03:00:00 9.4 21 Oeste 41 Oeste 0 -- -- 77
2019-05-29 02:00:00 9.7 23 Noroeste 41 Oeste 0 -- -- 75
2019-05-29 01:00:00 9.4 20 Oeste 33 Oeste 0 -- -- 75
2019-05-29 00:00:00 10.1 21 Noroeste 36 Noroeste 0 -- -- 72
2019-05-28 23:00:00 10.7 26 Noroeste 46 Noroeste 0 -- -- 69
2019-05-28 22:00:00 11.2 23 Noroeste 50 Noroeste 0 -- -- 65
2019-05-28 21:00:00 12.7 19 Oeste 60 Noroeste 0 -- -- 57
2019-05-28 20:00:00 14.2 30 Noroeste 56 Noroeste 0 -- -- 50
2019-05-28 19:00:00 15.4 24 Noroeste 60 Noroeste 0 -- -- 51
2019-05-28 18:00:00 16 31 Noroeste 69 Oeste 0 -- -- 51
2019-05-28 17:00:00 15 33 Noroeste 61 Noroeste 0 -- -- 57
2019-05-28 16:00:00 16.9 33 Noroeste 58 Oeste 0 -- -- 49
2019-05-28 15:00:00 16.3 33 Noroeste 58 Noroeste 0 -- -- 50
2019-05-28 14:00:00 15.4 31 Noroeste 57 Oeste 0 -- -- 57
2019-05-28 13:00:00 15.1 36 Noroeste 60 Noroeste 0 -- -- 57
2019-05-28 12:00:00 14.8 35 Noroeste 71 Oeste 0 -- -- 59
2019-05-28 11:00:00 12.8 34 Oeste 55 Oeste 0 -- -- 64
2019-05-28 10:00:00 12.4 26 Noroeste 62 Noroeste 0 -- -- 65
2019-05-28 09:00:00 10.7 26 Noroeste 58 Noroeste 0 -- -- 70
2019-05-28 08:00:00 9.4 34 Noroeste 54 Oeste 0 -- -- 74
2019-05-28 07:00:00 9 26 Noroeste 62 Noroeste 0 -- -- 76
2019-05-28 06:00:00 9.5 35 Noroeste 54 Noroeste 0 -- -- 75
2019-05-28 05:00:00 9.5 23 Oeste 47 Oeste 0 -- -- 73
2019-05-28 04:00:00 9.9 24 Oeste 48 Noroeste 0 -- -- 72
2019-05-28 03:00:00 10.3 24 Oeste 41 Oeste 0 -- -- 72
2019-05-28 02:00:00 10.7 29 Oeste 47 Noroeste 0 -- -- 75
2019-05-28 01:00:00 11.5 27 Oeste 64 Noroeste 0 -- -- 73
2019-05-28 00:00:00 12.3 36 Noroeste 59 Noroeste 0 -- -- 66